createdAt,value
2024-02-28T00:00:29.699Z,11.78
2024-02-28T00:01:28.611Z,11.47
2024-02-28T00:02:25.735Z,11.56
2024-02-28T00:03:25.349Z,11.93
2024-02-28T00:04:23.307Z,12.08
2024-02-28T00:05:21.023Z,12.09
2024-02-28T00:06:22.732Z,12.58
2024-02-28T00:07:20.775Z,12.88
2024-02-28T00:08:20.991Z,12.63
2024-02-28T00:09:18.261Z,12.21
2024-02-28T00:10:15.922Z,12.23
2024-02-28T00:11:14.157Z,12.37
2024-02-28T00:12:11.572Z,12.13
2024-02-28T00:13:14.843Z,11.89
2024-02-28T00:14:18.724Z,11.74
2024-02-28T00:15:17.458Z,11.49
2024-02-28T00:16:14.965Z,11.92
2024-02-28T00:17:17.504Z,12.22
2024-02-28T00:18:16.340Z,12.43
2024-02-28T00:19:14.313Z,12.24
2024-02-28T00:20:13.143Z,11.95
2024-02-28T00:21:10.707Z,11.69
2024-02-28T00:22:08.217Z,11.74
2024-02-28T00:23:05.851Z,11.73
2024-02-28T00:24:03.164Z,11.57
2024-02-28T00:25:02.529Z,11.43
2024-02-28T00:26:00.050Z,11.99
2024-02-28T00:26:57.683Z,12.69
2024-02-28T00:27:55.587Z,12.34
2024-02-28T00:28:53.067Z,12.34
2024-02-28T00:29:50.547Z,12.22
2024-02-28T00:30:48.824Z,11.79
2024-02-28T00:31:46.888Z,11.60
2024-02-28T00:32:44.732Z,11.39
2024-02-28T00:33:42.071Z,11.66
2024-02-28T00:34:39.589Z,12.26
2024-02-28T00:35:39.417Z,12.56
2024-02-28T00:36:48.223Z,12.78
2024-02-28T00:37:53.467Z,12.63
2024-02-28T00:38:51.199Z,12.21
2024-02-28T00:39:49.005Z,12.47
2024-02-28T00:40:46.247Z,12.39
2024-02-28T00:41:43.845Z,11.98
2024-02-28T00:42:41.784Z,11.77
2024-02-28T00:43:39.236Z,11.51
2024-02-28T00:44:36.469Z,11.53
2024-02-28T00:45:36.529Z,12.16
2024-02-28T00:46:34.273Z,12.18
2024-02-28T00:47:31.800Z,11.91
2024-02-28T00:48:29.565Z,11.59
2024-02-28T00:49:27.175Z,11.91
2024-02-28T00:50:24.578Z,11.84
2024-02-28T00:51:22.463Z,11.45
2024-02-28T00:52:20.179Z,11.45
2024-02-28T00:53:17.979Z,11.43
2024-02-28T00:54:15.694Z,11.65
2024-02-28T00:55:13.249Z,12.18
2024-02-28T00:56:10.550Z,12.53
2024-02-28T00:57:08.230Z,11.93
2024-02-28T00:58:05.891Z,11.64
2024-02-28T00:59:04.381Z,11.52
2024-02-28T01:00:02.045Z,11.42
2024-02-28T01:00:59.891Z,11.78
2024-02-28T01:01:57.642Z,12.52
2024-02-28T01:02:55.167Z,12.81
2024-02-28T01:03:52.692Z,12.75
2024-02-28T01:04:50.578Z,12.54
2024-02-28T01:05:48.174Z,12.30
2024-02-28T01:06:45.551Z,11.95
2024-02-28T01:07:42.894Z,11.72
2024-02-28T01:08:40.862Z,11.95
2024-02-28T01:09:38.461Z,12.22
2024-02-28T01:10:36.113Z,12.26
2024-02-28T01:11:37.299Z,11.91
2024-02-28T01:12:34.968Z,11.83
2024-02-28T01:13:32.665Z,11.91
2024-02-28T01:14:31.283Z,11.91
2024-02-28T01:15:29.284Z,12.09
2024-02-28T01:16:29.361Z,12.14
2024-02-28T01:17:28.366Z,11.85
2024-02-28T01:18:25.977Z,11.72
2024-02-28T01:19:23.535Z,11.59
2024-02-28T01:20:20.977Z,12.02
2024-02-28T01:21:18.887Z,12.46
2024-02-28T01:22:16.510Z,12.62
2024-02-28T01:23:14.070Z,12.39
2024-02-28T01:24:11.504Z,12.12
2024-02-28T01:25:09.299Z,12.10
2024-02-28T01:26:07.712Z,12.31
2024-02-28T01:27:05.139Z,12.13
2024-02-28T01:28:02.808Z,11.78
2024-02-28T01:29:00.323Z,11.45
2024-02-28T01:29:57.887Z,11.43
2024-02-28T01:30:55.291Z,11.79
2024-02-28T01:31:53.216Z,11.80
2024-02-28T01:32:51.027Z,11.51
2024-02-28T01:33:49.323Z,11.44
2024-02-28T01:34:47.353Z,11.75
2024-02-28T01:35:44.871Z,12.00
2024-02-28T01:36:42.799Z,11.69
2024-02-28T01:37:40.575Z,11.30
2024-02-28T01:38:38.270Z,11.14
2024-02-28T01:39:35.639Z,11.75
2024-02-28T01:40:33.221Z,12.40
2024-02-28T01:41:30.702Z,12.31
2024-02-28T01:42:27.889Z,11.83
2024-02-28T01:43:25.424Z,11.42
2024-02-28T01:44:23.299Z,11.73
2024-02-28T01:45:21.187Z,11.61
2024-02-28T01:46:25.561Z,11.76
2024-02-28T01:47:22.801Z,11.41
2024-02-28T01:48:20.492Z,11.42
2024-02-28T01:49:18.959Z,11.67
2024-02-28T01:50:16.643Z,11.86
2024-02-28T01:51:14.614Z,11.92
2024-02-28T01:52:12.566Z,11.97
2024-02-28T01:53:10.943Z,12.11
2024-02-28T01:54:08.534Z,12.12
2024-02-28T01:55:07.802Z,12.20
2024-02-28T01:56:05.581Z,11.94
2024-02-28T01:57:03.824Z,11.78
2024-02-28T01:58:01.512Z,11.82
2024-02-28T01:58:59.850Z,11.68
2024-02-28T01:59:57.736Z,11.78
2024-02-28T02:00:55.642Z,11.52
2024-02-28T02:01:53.273Z,11.41
2024-02-28T02:02:51.141Z,11.61
2024-02-28T02:03:48.706Z,11.87
2024-02-28T02:04:46.493Z,11.79
2024-02-28T02:05:44.727Z,11.70
2024-02-28T02:06:44.903Z,11.62
2024-02-28T02:07:42.472Z,11.55
2024-02-28T02:08:40.432Z,11.45
2024-02-28T02:09:38.398Z,11.29
2024-02-28T02:10:35.931Z,11.23
2024-02-28T02:11:33.889Z,11.13
2024-02-28T02:12:34.326Z,10.97
2024-02-28T02:13:35.052Z,10.99
2024-02-28T02:14:32.531Z,11.00
2024-02-28T02:15:31.886Z,11.57
2024-02-28T02:16:29.511Z,12.00
2024-02-28T02:17:27.200Z,12.05
2024-02-28T02:18:24.813Z,11.97
2024-02-28T02:19:23.149Z,11.81
2024-02-28T02:20:22.063Z,11.60
2024-02-28T02:21:22.511Z,11.48
2024-02-28T02:22:21.404Z,11.58
2024-02-28T02:23:19.036Z,11.51
2024-02-28T02:24:16.580Z,11.58
2024-02-28T02:25:14.831Z,11.21
2024-02-28T02:26:12.493Z,11.30
2024-02-28T02:27:09.881Z,11.99
2024-02-28T02:28:07.566Z,11.88
2024-02-28T02:29:05.149Z,11.93
2024-02-28T02:30:03.162Z,12.17
2024-02-28T02:31:00.491Z,11.97
2024-02-28T02:31:58.113Z,11.86
2024-02-28T02:32:55.443Z,11.76
2024-02-28T02:33:52.919Z,11.59
2024-02-28T02:34:50.556Z,11.85
2024-02-28T02:35:48.088Z,11.66
2024-02-28T02:36:45.796Z,11.76
2024-02-28T02:37:49.889Z,11.88
2024-02-28T02:38:47.379Z,11.65
2024-02-28T02:39:45.211Z,11.79
2024-02-28T02:40:42.738Z,11.70
2024-02-28T02:41:40.147Z,11.51
2024-02-28T02:42:37.396Z,11.50
2024-02-28T02:43:35.030Z,11.54
2024-02-28T02:44:32.826Z,11.45
2024-02-28T02:45:30.399Z,11.14
2024-02-28T02:46:27.984Z,11.20
2024-02-28T02:47:25.752Z,11.21
2024-02-28T02:48:23.171Z,11.02
2024-02-28T02:49:20.793Z,11.75
2024-02-28T02:50:19.257Z,12.23
2024-02-28T02:51:18.321Z,12.13
2024-02-28T02:52:16.103Z,11.71
2024-02-28T02:53:14.457Z,11.82
2024-02-28T02:54:12.135Z,11.74
2024-02-28T02:55:10.048Z,11.51
2024-02-28T02:56:08.027Z,11.48
2024-02-28T02:57:05.947Z,11.69
2024-02-28T02:58:03.923Z,11.77
2024-02-28T02:59:01.282Z,11.98
2024-02-28T03:00:04.737Z,11.86
2024-02-28T03:01:03.891Z,11.88
2024-02-28T03:02:08.057Z,11.74
2024-02-28T03:03:07.128Z,11.78
2024-02-28T03:04:04.984Z,11.91
2024-02-28T03:05:02.706Z,11.95
2024-02-28T03:06:00.347Z,12.02
2024-02-28T03:06:57.888Z,11.84
2024-02-28T03:07:55.845Z,11.94
2024-02-28T03:08:53.441Z,11.85
2024-02-28T03:09:51.092Z,11.67
2024-02-28T03:10:48.553Z,11.45
2024-02-28T03:11:46.388Z,11.48
2024-02-28T03:12:44.153Z,11.42
2024-02-28T03:13:41.934Z,11.49
2024-02-28T03:14:39.535Z,11.50
2024-02-28T03:15:36.949Z,11.55
2024-02-28T03:16:39.072Z,11.67
2024-02-28T03:17:36.451Z,11.80
2024-02-28T03:18:34.095Z,11.87
2024-02-28T03:19:31.739Z,11.81
2024-02-28T03:20:29.273Z,11.78
2024-02-28T03:21:26.747Z,11.57
2024-02-28T03:22:24.380Z,11.28
2024-02-28T03:23:22.098Z,11.21
2024-02-28T03:24:19.921Z,11.04
2024-02-28T03:25:17.807Z,10.99
2024-02-28T03:26:15.067Z,11.01
2024-02-28T03:27:12.566Z,10.92
2024-02-28T03:28:10.403Z,10.81
2024-02-28T03:29:07.922Z,10.83
2024-02-28T03:30:05.672Z,10.94
2024-02-28T03:31:03.511Z,11.67
2024-02-28T03:32:00.848Z,12.17
2024-02-28T03:32:58.408Z,12.30
2024-02-28T03:33:56.094Z,12.21
2024-02-28T03:34:53.896Z,11.71
2024-02-28T03:35:51.257Z,11.10
2024-02-28T03:36:49.029Z,10.87
2024-02-28T03:37:46.285Z,10.75
2024-02-28T03:38:43.749Z,10.61
2024-02-28T03:39:41.399Z,10.69
2024-02-28T03:40:38.748Z,10.92
2024-02-28T03:41:36.204Z,11.23
2024-02-28T03:42:33.552Z,11.27
2024-02-28T03:43:31.160Z,11.18
2024-02-28T03:44:28.689Z,10.98
2024-02-28T03:45:26.325Z,10.88
2024-02-28T03:46:23.862Z,10.96
2024-02-28T03:47:23.694Z,11.08
2024-02-28T03:48:21.159Z,11.21
2024-02-28T03:49:18.893Z,11.06
2024-02-28T03:50:16.188Z,11.03
2024-02-28T03:51:13.555Z,11.23
2024-02-28T03:52:10.964Z,11.49
2024-02-28T03:53:08.352Z,11.64
2024-02-28T03:54:07.075Z,11.53
2024-02-28T03:55:04.568Z,11.72
2024-02-28T03:56:02.046Z,11.82
2024-02-28T03:57:00.317Z,12.02
2024-02-28T03:57:57.612Z,11.79
2024-02-28T03:58:55.260Z,11.78
2024-02-28T03:59:52.753Z,11.71
2024-02-28T04:00:50.369Z,11.76
2024-02-28T04:01:47.820Z,11.77
2024-02-28T04:02:45.888Z,11.79
2024-02-28T04:03:43.647Z,11.48
2024-02-28T04:04:41.068Z,11.22
2024-02-28T04:05:38.725Z,11.00
2024-02-28T04:06:39.223Z,10.85
2024-02-28T04:07:39.835Z,10.72
2024-02-28T04:08:37.396Z,10.80
2024-02-28T04:09:36.753Z,10.75
2024-02-28T04:10:34.267Z,10.78
2024-02-28T04:11:31.688Z,10.78
2024-02-28T04:12:29.119Z,10.64
2024-02-28T04:13:26.524Z,10.54
2024-02-28T04:14:23.827Z,10.54
2024-02-28T04:15:21.521Z,10.58
2024-02-28T04:16:19.295Z,10.74
2024-02-28T04:17:16.846Z,11.03
2024-02-28T04:18:14.713Z,11.35
2024-02-28T04:19:12.924Z,11.70
2024-02-28T04:20:13.958Z,11.69
2024-02-28T04:21:11.248Z,11.39
2024-02-28T04:22:08.623Z,11.22
2024-02-28T04:23:06.090Z,11.45
2024-02-28T04:24:03.455Z,11.23
2024-02-28T04:25:00.818Z,11.10
2024-02-28T04:25:58.375Z,11.08
2024-02-28T04:26:56.008Z,10.67
2024-02-28T04:27:53.473Z,10.51
2024-02-28T04:28:51.049Z,10.91
2024-02-28T04:29:48.794Z,11.16
2024-02-28T04:30:46.318Z,11.36
2024-02-28T04:31:44.023Z,11.08
2024-02-28T04:32:41.498Z,10.62
2024-02-28T04:33:39.689Z,10.28
2024-02-28T04:34:38.052Z,10.15
2024-02-28T04:35:35.444Z,10.12
2024-02-28T04:36:33.141Z,10.27
2024-02-28T04:37:30.686Z,10.45
2024-02-28T04:38:28.125Z,10.56
2024-02-28T04:39:25.554Z,10.54
2024-02-28T04:40:23.298Z,10.58
2024-02-28T04:41:20.957Z,10.49
2024-02-28T04:42:18.762Z,10.49
2024-02-28T04:43:16.746Z,10.36
2024-02-28T04:44:14.347Z,10.13
2024-02-28T04:45:12.329Z,10.13
2024-02-28T04:46:09.937Z,10.10
2024-02-28T04:47:07.408Z,10.02
2024-02-28T04:48:05.304Z,10.26
2024-02-28T04:49:02.710Z,10.35
2024-02-28T04:50:00.338Z,10.51
2024-02-28T04:50:58.253Z,10.47
2024-02-28T04:51:56.127Z,10.46
2024-02-28T04:52:53.982Z,10.46
2024-02-28T04:53:51.282Z,10.26
2024-02-28T04:54:48.878Z,10.20
2024-02-28T04:55:46.471Z,10.21
2024-02-28T04:56:44.505Z,10.31
2024-02-28T04:57:42.139Z,10.54
2024-02-28T04:58:39.512Z,10.79
2024-02-28T04:59:36.827Z,11.04
2024-02-28T05:00:34.343Z,10.99
2024-02-28T05:01:33.021Z,10.60
2024-02-28T05:02:30.505Z,10.48
2024-02-28T05:03:27.932Z,10.55
2024-02-28T05:04:25.613Z,10.68
2024-02-28T05:05:23.135Z,10.76
2024-02-28T05:06:20.665Z,11.01
2024-02-28T05:07:18.169Z,10.77
2024-02-28T05:08:15.774Z,10.65
2024-02-28T05:09:13.328Z,10.40
2024-02-28T05:10:11.093Z,10.52
2024-02-28T05:11:08.510Z,10.34
2024-02-28T05:12:06.278Z,10.51
2024-02-28T05:13:05.443Z,10.82
2024-02-28T05:14:02.776Z,10.71
2024-02-28T05:15:00.005Z,10.34
2024-02-28T05:15:57.482Z,10.27
2024-02-28T05:16:54.725Z,10.28
2024-02-28T05:17:56.407Z,10.53
2024-02-28T05:18:53.904Z,10.29
2024-02-28T05:19:51.253Z,10.27
2024-02-28T05:20:48.435Z,10.14
2024-02-28T05:21:46.568Z,9.98
2024-02-28T05:22:44.109Z,9.96
2024-02-28T05:23:42.184Z,10.04
2024-02-28T05:24:39.417Z,10.57
2024-02-28T05:25:36.594Z,10.36
2024-02-28T05:26:36.354Z,10.00
2024-02-28T05:27:33.703Z,9.97
2024-02-28T05:28:40.205Z,9.81
2024-02-28T05:29:37.415Z,9.73
2024-02-28T05:30:38.404Z,9.69
2024-02-28T05:31:38.230Z,9.71
2024-02-28T05:32:35.623Z,9.80
2024-02-28T05:33:32.924Z,10.12
2024-02-28T05:34:30.369Z,10.37
2024-02-28T05:35:27.551Z,10.52
2024-02-28T05:36:26.051Z,10.88
2024-02-28T05:37:23.205Z,10.49
2024-02-28T05:38:20.461Z,10.82
2024-02-28T05:39:17.700Z,10.44
2024-02-28T05:40:15.150Z,10.40
2024-02-28T05:41:12.495Z,10.55
2024-02-28T05:42:10.600Z,10.51
2024-02-28T05:43:08.064Z,10.38
2024-02-28T05:44:05.372Z,9.96
2024-02-28T05:45:02.620Z,9.65
2024-02-28T05:45:59.882Z,9.66
2024-02-28T05:46:57.305Z,9.63
2024-02-28T05:47:54.670Z,9.44
2024-02-28T05:48:52.343Z,9.62
2024-02-28T05:49:49.517Z,9.92
2024-02-28T05:50:47.224Z,10.14
2024-02-28T05:51:44.407Z,10.20
2024-02-28T05:52:44.708Z,10.15
2024-02-28T05:53:44.106Z,10.35
2024-02-28T05:54:42.227Z,10.06
2024-02-28T05:55:39.439Z,9.77
2024-02-28T05:56:36.506Z,9.71
2024-02-28T05:57:33.715Z,9.59
2024-02-28T05:58:31.055Z,9.50
2024-02-28T05:59:28.148Z,9.50
2024-02-28T06:00:25.536Z,9.77
2024-02-28T06:01:22.982Z,10.23
2024-02-28T06:02:20.381Z,10.43
2024-02-28T06:03:17.628Z,10.33
2024-02-28T06:04:15.015Z,10.27
2024-02-28T06:05:12.319Z,10.31
2024-02-28T06:06:09.629Z,10.27
2024-02-28T06:07:08.295Z,10.37
2024-02-28T06:08:06.368Z,10.58
2024-02-28T06:09:04.166Z,10.38
2024-02-28T06:10:01.881Z,10.76
2024-02-28T06:10:59.308Z,10.71
2024-02-28T06:11:59.495Z,10.64
2024-02-28T06:12:58.098Z,10.17
2024-02-28T06:13:55.498Z,9.89
2024-02-28T06:14:52.877Z,9.80
2024-02-28T06:15:50.024Z,9.94
2024-02-28T06:16:50.447Z,9.69
2024-02-28T06:17:47.708Z,9.50
2024-02-28T06:18:44.953Z,9.33
2024-02-28T06:19:42.215Z,9.56
2024-02-28T06:20:39.574Z,9.59
2024-02-28T06:21:36.762Z,9.79
2024-02-28T06:22:34.068Z,9.93
2024-02-28T06:23:31.344Z,10.02
2024-02-28T06:24:28.600Z,10.11
2024-02-28T06:25:26.277Z,10.01
2024-02-28T06:26:23.781Z,10.02
2024-02-28T06:27:20.989Z,10.19
2024-02-28T06:28:18.580Z,9.97
2024-02-28T06:29:16.725Z,10.01
2024-02-28T06:30:14.177Z,10.16
2024-02-28T06:31:16.974Z,10.50
2024-02-28T06:32:14.147Z,10.53
2024-02-28T06:33:11.329Z,10.41
2024-02-28T06:34:09.464Z,10.48
2024-02-28T06:35:09.327Z,10.34
2024-02-28T06:36:07.433Z,10.11
2024-02-28T06:37:05.370Z,9.96
2024-02-28T06:38:03.328Z,10.20
2024-02-28T06:39:00.689Z,10.35
2024-02-28T06:39:58.089Z,10.44
2024-02-28T06:40:55.531Z,10.52
2024-02-28T06:41:53.173Z,10.45
2024-02-28T06:42:50.475Z,10.51
2024-02-28T06:43:47.898Z,10.69
2024-02-28T06:44:45.567Z,10.66
2024-02-28T06:45:42.810Z,10.68
2024-02-28T06:46:40.036Z,10.93
2024-02-28T06:47:39.575Z,10.61
2024-02-28T06:48:37.083Z,10.54
2024-02-28T06:49:34.508Z,10.57
2024-02-28T06:50:32.793Z,10.43
2024-02-28T06:51:30.157Z,10.42
2024-02-28T06:52:27.608Z,10.29
2024-02-28T06:53:25.235Z,10.56
2024-02-28T06:54:22.824Z,10.47
2024-02-28T06:55:20.026Z,10.60
2024-02-28T06:56:17.280Z,10.59
2024-02-28T06:57:14.529Z,10.52
2024-02-28T06:58:11.863Z,10.27
2024-02-28T06:59:09.084Z,10.59
2024-02-28T07:00:10.810Z,10.63
2024-02-28T07:01:08.093Z,10.74
2024-02-28T07:02:06.436Z,10.75
2024-02-28T07:03:03.661Z,10.73
2024-02-28T07:04:01.210Z,10.75
2024-02-28T07:04:58.284Z,10.91
2024-02-28T07:05:56.317Z,10.73
2024-02-28T07:06:53.750Z,10.70
2024-02-28T07:07:51.355Z,10.66
2024-02-28T07:08:48.674Z,10.67
2024-02-28T07:09:45.965Z,10.74
2024-02-28T07:10:44.963Z,10.98
2024-02-28T07:11:42.418Z,10.88
2024-02-28T07:12:39.591Z,11.08
2024-02-28T07:13:37.505Z,11.12
2024-02-28T07:14:34.914Z,10.91
2024-02-28T07:15:32.277Z,10.84
2024-02-28T07:16:36.119Z,10.89
2024-02-28T07:17:33.632Z,10.94
2024-02-28T07:18:32.421Z,10.91
2024-02-28T07:19:29.826Z,10.90
2024-02-28T07:20:27.859Z,10.97
2024-02-28T07:21:25.012Z,10.98
2024-02-28T07:22:22.665Z,11.02
2024-02-28T07:23:19.796Z,11.04
2024-02-28T07:24:17.092Z,11.09
2024-02-28T07:25:14.653Z,11.16
2024-02-28T07:26:26.727Z,11.04
2024-02-28T07:27:27.803Z,11.16
2024-02-28T07:28:25.020Z,11.51
2024-02-28T07:29:22.522Z,11.61
2024-02-28T07:30:23.188Z,11.58
2024-02-28T07:31:21.213Z,11.63
2024-02-28T07:32:18.514Z,11.84
2024-02-28T07:33:16.097Z,12.08
2024-02-28T07:34:13.377Z,12.18
2024-02-28T07:35:10.423Z,12.07
2024-02-28T07:36:08.076Z,12.02
2024-02-28T07:37:05.625Z,11.97
2024-02-28T07:38:02.979Z,12.03
2024-02-28T07:39:00.249Z,12.33
2024-02-28T07:39:57.350Z,12.33
2024-02-28T07:40:54.644Z,12.31
2024-02-28T07:41:55.835Z,12.28
2024-02-28T07:42:57.799Z,12.33
2024-02-28T07:43:55.540Z,12.38
2024-02-28T07:44:55.038Z,12.42
2024-02-28T07:45:52.453Z,12.65
2024-02-28T07:46:52.351Z,12.86
2024-02-28T07:47:49.709Z,12.97
2024-02-28T07:48:46.934Z,13.01
2024-02-28T07:49:45.165Z,13.06
2024-02-28T07:50:43.351Z,13.17
2024-02-28T07:51:42.017Z,13.19
2024-02-28T07:52:39.237Z,13.60
2024-02-28T07:53:37.642Z,13.92
2024-02-28T07:54:35.205Z,14.06
2024-02-28T07:55:32.522Z,14.30
2024-02-28T07:56:30.880Z,14.49
2024-02-28T07:57:28.110Z,14.53
2024-02-28T07:58:25.357Z,14.30
2024-02-28T07:59:22.729Z,14.37
2024-02-28T08:00:21.603Z,14.49
2024-02-28T08:01:18.915Z,14.28
2024-02-28T08:02:16.304Z,14.14
2024-02-28T08:03:13.651Z,13.92
2024-02-28T08:04:10.870Z,13.82
2024-02-28T08:05:09.153Z,14.04
2024-02-28T08:06:06.509Z,14.19
2024-02-28T08:07:04.768Z,14.32
2024-02-28T08:08:02.808Z,14.63
2024-02-28T08:09:00.451Z,14.42
2024-02-28T08:10:30.623Z,13.99
2024-02-28T08:11:27.961Z,14.03
2024-02-28T08:12:25.061Z,14.01
2024-02-28T08:13:22.312Z,14.25
2024-02-28T08:14:19.446Z,14.61
2024-02-28T08:15:17.585Z,14.96
2024-02-28T08:16:14.865Z,14.60
2024-02-28T08:17:12.156Z,14.61
2024-02-28T08:18:09.307Z,14.53
2024-02-28T08:19:06.417Z,14.52
2024-02-28T08:20:04.382Z,14.60
2024-02-28T08:21:03.415Z,14.63
2024-02-28T08:22:00.567Z,14.57
2024-02-28T08:22:59.701Z,14.89
2024-02-28T08:23:56.944Z,14.85
2024-02-28T08:24:54.269Z,14.87
2024-02-28T08:25:51.514Z,14.94
2024-02-28T08:26:48.771Z,15.12
2024-02-28T08:27:45.921Z,15.52
2024-02-28T08:28:43.162Z,15.64
2024-02-28T08:29:45.294Z,14.80
2024-02-28T08:30:42.515Z,15.62
2024-02-28T08:31:43.318Z,15.78
2024-02-28T08:32:40.487Z,16.07
2024-02-28T08:33:37.669Z,15.80
2024-02-28T08:34:35.000Z,15.78
2024-02-28T08:35:32.356Z,15.98
2024-02-28T08:36:29.441Z,15.86
2024-02-28T08:37:28.889Z,15.87
2024-02-28T08:38:26.071Z,16.28
2024-02-28T08:39:24.864Z,15.99
2024-02-28T08:40:22.080Z,16.09
2024-02-28T08:41:19.866Z,15.78
2024-02-28T08:42:16.974Z,15.92
2024-02-28T08:43:14.197Z,16.07
2024-02-28T08:44:11.263Z,16.37
2024-02-28T08:45:09.336Z,16.17
2024-02-28T08:46:06.612Z,15.95
2024-02-28T08:47:03.930Z,15.72
2024-02-28T08:48:02.855Z,15.66
2024-02-28T08:49:00.259Z,15.85
2024-02-28T08:49:57.451Z,15.84
2024-02-28T08:50:54.711Z,16.03
2024-02-28T08:51:51.861Z,15.91
2024-02-28T08:52:49.106Z,16.17
2024-02-28T08:53:46.294Z,15.98
2024-02-28T08:54:43.367Z,15.86
2024-02-28T08:55:40.517Z,16.18
2024-02-28T08:56:39.879Z,16.18
2024-02-28T08:57:38.939Z,16.46
2024-02-28T08:58:36.115Z,16.60
2024-02-28T08:59:33.333Z,16.83
2024-02-28T09:00:30.547Z,16.37
2024-02-28T09:01:27.786Z,16.68
2024-02-28T09:02:24.907Z,16.37
2024-02-28T09:03:23.956Z,16.54
2024-02-28T09:04:21.261Z,15.92
2024-02-28T09:05:18.359Z,16.43
2024-02-28T09:06:15.882Z,16.33
2024-02-28T09:07:13.229Z,15.90
2024-02-28T09:08:13.026Z,16.22
2024-02-28T09:09:11.403Z,16.29
2024-02-28T09:10:09.456Z,15.87
2024-02-28T09:11:07.573Z,16.13
2024-02-28T09:12:05.088Z,16.26
2024-02-28T09:13:02.201Z,16.52
2024-02-28T09:14:00.469Z,16.56
2024-02-28T09:14:59.049Z,16.42
2024-02-28T09:15:56.237Z,16.54
2024-02-28T09:16:53.413Z,16.54
2024-02-28T09:17:50.545Z,16.67
2024-02-28T09:18:47.715Z,16.75
2024-02-28T09:19:44.877Z,16.46
2024-02-28T09:20:42.127Z,16.70
2024-02-28T09:21:39.290Z,16.87
2024-02-28T09:22:36.430Z,16.87
2024-02-28T09:23:33.595Z,16.80
2024-02-28T09:24:30.736Z,16.91
2024-02-28T09:25:29.283Z,17.08
2024-02-28T09:26:26.969Z,16.89
2024-02-28T09:27:24.140Z,16.87
2024-02-28T09:28:21.347Z,16.62
2024-02-28T09:29:18.397Z,16.87
2024-02-28T09:30:15.866Z,17.10
2024-02-28T09:31:12.991Z,17.07
2024-02-28T09:32:10.524Z,16.85
2024-02-28T09:33:07.827Z,17.03
2024-02-28T09:34:09.006Z,17.24
2024-02-28T09:35:06.499Z,17.23
2024-02-28T09:36:04.670Z,17.30
2024-02-28T09:37:02.141Z,17.08
2024-02-28T09:37:59.396Z,17.34
2024-02-28T09:38:56.608Z,17.00
2024-02-28T09:39:54.684Z,17.24
2024-02-28T09:40:52.108Z,17.58
2024-02-28T09:41:50.958Z,17.33
2024-02-28T09:42:59.361Z,17.48
2024-02-28T09:43:57.289Z,17.69
2024-02-28T09:44:55.325Z,17.44
2024-02-28T09:45:52.431Z,17.68
2024-02-28T09:46:53.273Z,18.05
2024-02-28T09:47:50.792Z,17.99
2024-02-28T09:48:50.064Z,17.64
2024-02-28T09:49:50.777Z,17.75
2024-02-28T09:50:47.677Z,17.88
2024-02-28T09:51:44.970Z,18.33
2024-02-28T09:53:39.228Z,18.04
2024-02-28T09:54:36.738Z,18.21
2024-02-28T09:55:34.042Z,18.06
2024-02-28T09:56:31.460Z,18.32
2024-02-28T09:57:30.227Z,18.35
2024-02-28T09:58:28.246Z,18.24
2024-02-28T09:59:32.301Z,18.40
2024-02-28T10:00:37.751Z,18.31
2024-02-28T10:01:39.390Z,18.42
2024-02-28T10:02:39.234Z,18.41
2024-02-28T10:03:37.386Z,18.62
2024-02-28T10:04:34.841Z,18.30
2024-02-28T10:05:32.557Z,18.49
2024-02-28T10:06:29.748Z,18.57
2024-02-28T10:07:26.942Z,18.73
2024-02-28T10:08:24.830Z,18.19
2024-02-28T10:09:22.053Z,17.79
2024-02-28T10:10:19.295Z,18.34
2024-02-28T10:11:22.497Z,18.47
2024-02-28T10:12:20.583Z,18.40
2024-02-28T10:13:17.795Z,18.23
2024-02-28T10:14:21.516Z,18.53
2024-02-28T10:15:19.008Z,18.48
2024-02-28T10:16:19.742Z,17.93
2024-02-28T10:17:16.877Z,17.63
2024-02-28T10:18:14.229Z,17.95
2024-02-28T10:19:11.892Z,18.10
2024-02-28T10:20:10.882Z,18.29
2024-02-28T10:21:08.204Z,18.47
2024-02-28T10:22:05.860Z,18.44
2024-02-28T10:23:07.870Z,18.66
2024-02-28T10:24:06.555Z,18.53
2024-02-28T10:25:05.598Z,18.56
2024-02-28T10:26:03.756Z,18.62
2024-02-28T10:27:02.835Z,18.60
2024-02-28T10:28:03.431Z,18.66
2024-02-28T10:29:00.398Z,18.55
2024-02-28T10:29:57.606Z,18.56
2024-02-28T10:30:55.654Z,18.50
2024-02-28T10:31:53.695Z,18.57
2024-02-28T10:32:54.218Z,18.21
2024-02-28T10:33:51.514Z,18.38
2024-02-28T10:34:48.668Z,18.31
2024-02-28T10:35:46.374Z,18.38
2024-02-28T10:36:45.412Z,17.93
2024-02-28T10:37:42.550Z,18.06
2024-02-28T10:38:39.910Z,17.85
2024-02-28T10:39:37.716Z,18.04
2024-02-28T10:40:34.782Z,18.01
2024-02-28T10:41:32.600Z,18.20
2024-02-28T10:42:31.852Z,18.34
2024-02-28T10:43:31.309Z,18.23
2024-02-28T10:44:29.325Z,18.34
2024-02-28T10:45:41.963Z,18.36
2024-02-28T10:46:45.983Z,18.01
2024-02-28T10:47:43.178Z,18.43
2024-02-28T10:48:40.603Z,18.44
2024-02-28T10:49:37.939Z,18.34
2024-02-28T10:50:35.034Z,18.22
2024-02-28T10:51:40.096Z,18.06
2024-02-28T10:52:40.878Z,18.19
2024-02-28T10:53:43.431Z,18.18
2024-02-28T10:54:45.324Z,18.23
2024-02-28T10:55:43.014Z,17.84
2024-02-28T10:56:41.145Z,18.15
2024-02-28T10:57:39.009Z,17.78
2024-02-28T10:58:38.385Z,17.78
2024-02-28T10:59:36.980Z,18.10
2024-02-28T11:00:40.270Z,18.03
2024-02-28T11:01:45.681Z,18.10
2024-02-28T11:02:44.828Z,18.46
2024-02-28T11:03:42.090Z,18.33
2024-02-28T11:04:39.402Z,18.55
2024-02-28T11:05:40.688Z,18.46
2024-02-28T11:06:50.022Z,18.67
2024-02-28T11:07:48.606Z,18.49
2024-02-28T11:08:49.237Z,18.37
2024-02-28T11:09:48.122Z,18.28
2024-02-28T11:10:51.888Z,18.19
2024-02-28T11:11:50.876Z,18.14
2024-02-28T11:12:56.233Z,18.45
2024-02-28T11:13:57.425Z,18.67
2024-02-28T11:15:06.877Z,18.37
2024-02-28T11:16:11.359Z,18.30
2024-02-28T11:17:08.958Z,17.99
2024-02-28T11:18:12.550Z,17.59
2024-02-28T11:19:10.056Z,17.97
2024-02-28T11:20:14.441Z,18.29
2024-02-28T11:21:18.372Z,18.42
2024-02-28T11:22:19.847Z,18.51
2024-02-28T11:23:19.066Z,18.61
2024-02-28T11:24:16.187Z,18.69
2024-02-28T11:25:13.338Z,18.42
2024-02-28T11:26:10.555Z,18.61
2024-02-28T11:27:08.170Z,18.51
2024-02-28T11:28:06.137Z,18.44
2024-02-28T11:29:03.357Z,18.71
2024-02-28T11:30:01.721Z,18.65
2024-02-28T11:30:58.980Z,18.83
2024-02-28T11:31:56.304Z,19.09
2024-02-28T11:32:56.004Z,18.71
2024-02-28T11:33:54.198Z,18.81
2024-02-28T11:34:52.841Z,18.84
2024-02-28T11:36:00.664Z,19.07
2024-02-28T11:37:00.266Z,19.10
2024-02-28T11:37:58.604Z,18.91
2024-02-28T11:38:59.212Z,18.50
2024-02-28T11:39:57.108Z,18.87
2024-02-28T11:40:55.257Z,18.59
2024-02-28T11:41:52.297Z,18.66
2024-02-28T11:42:50.499Z,18.15
2024-02-28T11:43:52.125Z,18.09
2024-02-28T11:45:01.488Z,18.32
2024-02-28T11:46:02.820Z,18.25
2024-02-28T11:46:59.885Z,18.66
2024-02-28T11:47:57.782Z,18.57
2024-02-28T11:48:57.207Z,18.27
2024-02-28T11:49:54.380Z,18.17
2024-02-28T11:50:52.570Z,18.34
2024-02-28T11:51:49.900Z,18.32
2024-02-28T11:52:47.572Z,18.20
2024-02-28T11:53:44.761Z,18.04
2024-02-28T11:54:42.049Z,18.16
2024-02-28T11:55:39.639Z,17.97
2024-02-28T11:56:36.675Z,18.01
2024-02-28T11:57:35.318Z,18.03
2024-02-28T11:58:32.537Z,17.61
2024-02-28T11:59:29.586Z,17.85
2024-02-28T12:00:27.121Z,17.59
2024-02-28T12:01:38.006Z,17.76
2024-02-28T12:02:35.177Z,17.69
2024-02-28T12:03:32.349Z,17.97
2024-02-28T12:04:29.507Z,17.88
2024-02-28T12:05:26.504Z,17.83
2024-02-28T12:06:23.569Z,17.94
2024-02-28T12:07:20.594Z,18.14
2024-02-28T12:08:21.426Z,18.36
2024-02-28T12:09:25.151Z,18.40
2024-02-28T12:10:27.004Z,18.32
2024-02-28T12:11:26.251Z,18.25
2024-02-28T12:12:23.505Z,17.85
2024-02-28T12:13:21.116Z,17.97
2024-02-28T12:14:18.618Z,17.95
2024-02-28T12:15:16.882Z,18.06
2024-02-28T12:16:13.960Z,17.74
2024-02-28T12:17:11.795Z,17.73
2024-02-28T12:18:11.479Z,18.05
2024-02-28T12:19:12.899Z,17.84
2024-02-28T12:20:10.652Z,17.82
2024-02-28T12:21:07.729Z,17.74
2024-02-28T12:22:05.825Z,18.11
2024-02-28T12:23:02.983Z,18.23
2024-02-28T12:24:00.279Z,18.36
2024-02-28T12:24:57.424Z,18.31
2024-02-28T12:25:54.807Z,18.30
2024-02-28T12:26:51.958Z,17.72
2024-02-28T12:27:49.185Z,17.52
2024-02-28T12:28:47.029Z,17.76
2024-02-28T12:29:44.199Z,17.82
2024-02-28T12:30:45.432Z,18.25
2024-02-28T12:31:42.626Z,18.13
2024-02-28T12:32:39.683Z,18.26